Time;durP1;ratioP1;P1;durP2;ratioP2;P2;SDS_P1;SDS_P2;PMS_P1;PMS_P2;Temp;Humidity;BMP_temperature;BMP_pressure;BME280_temperature;BME280_humidity;BME280_pressure;Samples;Min_cycle;Max_cycle;Signal;HPM_P1;HPM_P2
2021/07/29 00:01:38;;;;;;;11.57;5.42;;;;;;;21.02;79.50;97731.42;1747190;81;21341;-78
2021/07/29 00:04:04;;;;;;;10.50;5.60;;;;;;;20.97;78.71;97728.37;1736394;82;21275;-78
2021/07/29 00:06:30;;;;;;;11.12;6.25;;;;;;;20.97;78.90;97734.45;1736340;81;20969;-78
2021/07/29 00:08:56;;;;;;;6.92;5.95;;;;;;;20.96;78.75;97731.48;1736249;82;20878;-78
2021/07/29 00:11:22;;;;;;;9.05;6.10;;;;;;;21.00;78.62;97723.52;1736581;82;20839;-78
2021/07/29 00:13:51;;;;;;;13.55;5.62;;;;;;;21.04;78.47;97723.63;1736212;82;20970;-78
2021/07/29 00:16:16;;;;;;;11.15;5.55;;;;;;;21.08;78.45;97727.25;1736205;82;22090;-78
2021/07/29 00:19:07;;;;;;;10.82;5.83;;;;;;;21.08;78.47;97729.43;1736125;82;20935;-74
2021/07/29 00:21:29;;;;;;;9.53;6.17;;;;;;;21.10;78.50;97735.95;1735305;82;21469;-77
2021/07/29 00:23:55;;;;;;;11.53;5.78;;;;;;;21.15;78.27;97730.77;1736190;82;20843;-72
2021/07/29 00:26:21;;;;;;;10.78;6.05;;;;;;;21.08;78.51;97723.92;1736419;82;21053;-77
2021/07/29 00:28:47;;;;;;;9.75;5.53;;;;;;;21.03;79.58;97724.20;1736215;81;21294;-72
2021/07/29 00:31:12;;;;;;;8.93;6.35;;;;;;;20.99;80.49;97730.77;1736393;82;20866;-77
2021/07/29 00:33:38;;;;;;;9.13;5.65;;;;;;;21.00;80.50;97726.27;1712813;82;20941;-73
2021/07/29 00:36:05;;;;;;;13.30;6.30;;;;;;;21.03;80.47;97726.95;1733512;82;20867;-76
2021/07/29 00:38:30;;;;;;;9.68;5.42;;;;;;;20.98;79.86;97724.45;1736182;82;20965;-77
2021/07/29 00:40:57;;;;;;;10.35;6.12;;;;;;;20.91;80.40;97724.84;1724240;81;21282;-72
2021/07/29 00:43:23;;;;;;;11.15;6.12;;;;;;;20.84;80.40;97722.70;1721587;82;20891;-76
2021/07/29 00:45:49;;;;;;;10.32;5.87;;;;;;;20.79;80.12;97718.85;1733640;82;21481;-76
2021/07/29 00:48:17;;;;;;;10.70;5.47;;;;;;;20.79;80.98;97720.23;1736244;81;20862;-76
2021/07/29 00:50:43;;;;;;;9.38;5.87;;;;;;;20.87;80.26;97727.52;1736473;82;21033;-78
2021/07/29 00:53:09;;;;;;;10.13;5.37;;;;;;;20.96;80.01;97729.52;1718779;82;21996;-74
2021/07/29 00:55:35;;;;;;;10.40;5.62;;;;;;;21.03;79.73;97731.66;1727521;82;20978;-79
2021/07/29 00:58:01;;;;;;;12.98;5.30;;;;;;;21.06;80.05;97733.70;1736143;82;21013;-74
2021/07/29 01:00:27;;;;;;;18.67;6.65;;;;;;;21.08;81.11;97732.77;1736535;82;21442;-74
2021/07/29 01:02:53;;;;;;;11.45;6.47;;;;;;;21.11;80.34;97734.83;1738532;81;21039;-78
2021/07/29 01:05:20;;;;;;;8.18;6.08;;;;;;;21.10;81.48;97735.95;1744855;81;21375;-78
2021/07/29 01:07:46;;;;;;;12.07;6.45;;;;;;;20.96;83.89;97735.03;1740262;81;20897;-78
2021/07/29 01:10:12;;;;;;;8.38;6.45;;;;;;;20.87;82.87;97739.91;1728806;82;21017;-74
2021/07/29 01:12:38;;;;;;;9.18;7.03;;;;;;;20.84;82.91;97736.47;1730686;82;20967;-77
2021/07/29 01:15:05;;;;;;;13.30;7.83;;;;;;;20.80;83.80;97736.97;1728679;82;20962;-73
2021/07/29 01:17:33;;;;;;;16.25;8.90;;;;;;;20.77;85.75;97734.36;1735895;82;21232;-73
2021/07/29 01:19:59;;;;;;;14.13;8.98;;;;;;;20.76;83.72;97731.35;1729859;82;21436;-74
2021/07/29 01:22:32;;;;;;;13.58;9.65;;;;;;;20.72;85.00;97737.36;1721682;82;20955;-78
2021/07/29 01:24:58;;;;;;;11.83;8.48;;;;;;;20.69;84.18;97733.94;1728017;82;21026;-73
2021/07/29 01:27:24;;;;;;;12.03;7.97;;;;;;;20.73;83.80;97740.91;1736271;82;21536;-77
2021/07/29 01:29:50;;;;;;;10.75;8.23;;;;;;;20.76;83.35;97742.36;1736391;82;21201;-73
2021/07/29 01:32:16;;;;;;;11.35;8.60;;;;;;;20.78;83.31;97736.53;1736305;81;20913;-73
2021/07/29 01:34:42;;;;;;;17.12;8.98;;;;;;;20.79;85.47;97736.75;1736397;82;20952;-73
2021/07/29 01:37:08;;;;;;;12.55;7.80;;;;;;;20.76;84.82;97738.23;1736283;82;20886;-73
2021/07/29 01:39:33;;;;;;;11.90;8.48;;;;;;;20.76;84.37;97736.86;1732417;81;21033;-73
2021/07/29 01:41:59;;;;;;;12.50;8.20;;;;;;;20.81;84.68;97740.74;1723449;82;21148;-73
2021/07/29 01:44:25;;;;;;;10.50;8.50;;;;;;;20.81;85.84;97742.12;1736368;82;20859;-78
2021/07/29 01:46:51;;;;;;;14.47;8.45;;;;;;;20.84;84.70;97737.84;1736462;82;20886;-73
2021/07/29 01:49:22;;;;;;;12.10;7.70;;;;;;;20.84;85.67;97740.02;1734056;82;20990;-73
2021/07/29 01:51:45;;;;;;;13.67;9.30;;;;;;;20.77;85.96;97739.06;1722005;82;20998;-73
2021/07/29 01:54:11;;;;;;;12.50;9.73;;;;;;;20.67;87.84;97744.48;1736340;82;21179;-73
2021/07/29 01:56:37;;;;;;;12.78;9.88;;;;;;;20.60;86.16;97749.82;1736477;82;20870;-79
2021/07/29 01:59:06;;;;;;;13.70;10.45;;;;;;;20.60;85.61;97755.33;1736303;82;20918;-79
2021/07/29 02:01:31;;;;;;;13.08;11.03;;;;;;;20.63;86.00;97755.19;1736686;82;21007;-73
2021/07/29 02:03:57;;;;;;;12.10;10.03;;;;;;;20.64;85.26;97756.20;1738534;82;21014;-73
2021/07/29 02:06:23;;;;;;;13.15;10.58;;;;;;;20.65;85.45;97755.63;1739241;82;21182;-79
2021/07/29 02:08:49;;;;;;;14.45;11.57;;;;;;;20.56;85.96;97761.29;1736030;82;20858;-79
2021/07/29 02:11:15;;;;;;;15.05;11.68;;;;;;;20.53;85.95;97762.00;1722009;81;21583;-74
2021/07/29 02:13:41;;;;;;;14.58;11.45;;;;;;;20.52;85.21;97765.33;1721466;82;20943;-73
2021/07/29 02:16:10;;;;;;;12.45;11.05;;;;;;;20.51;85.30;97760.98;1735208;82;20973;-79
2021/07/29 02:18:36;;;;;;;14.90;11.93;;;;;;;20.43;86.65;97762.48;1735809;82;21296;-79
2021/07/29 02:21:08;;;;;;;14.83;12.68;;;;;;;20.34;86.96;97766.76;1736394;82;20914;-78
2021/07/29 02:23:35;;;;;;;14.50;10.63;;;;;;;20.24;87.24;97768.59;1713496;82;20963;-73
2021/07/29 02:26:01;;;;;;;12.80;11.48;;;;;;;20.09;87.09;97779.78;1694041;82;21056;-78
2021/07/29 02:28:27;;;;;;;12.35;10.25;;;;;;;19.97;87.01;97773.72;1713115;82;21573;-73
2021/07/29 02:30:55;;;;;;;14.15;11.97;;;;;;;19.90;87.36;97768.00;1721817;82;21049;-73
2021/07/29 02:33:22;;;;;;;14.10;11.78;;;;;;;19.87;87.46;97774.20;1731236;82;20955;-78
2021/07/29 02:35:49;;;;;;;14.85;11.50;;;;;;;19.82;87.87;97778.55;1736362;82;21019;-74
2021/07/29 02:38:16;;;;;;;15.15;10.43;;;;;;;19.73;88.32;97771.80;1735921;82;20967;-79
2021/07/29 02:40:42;;;;;;;12.03;10.78;;;;;;;19.56;89.03;97766.55;1736295;82;21030;-79
2021/07/29 02:43:09;;;;;;;13.70;10.13;;;;;;;19.62;88.11;97757.51;1736154;82;21277;-74
2021/07/29 02:45:34;;;;;;;14.38;10.78;;;;;;;19.58;88.52;97756.61;1736370;82;20994;-78
2021/07/29 02:48:00;;;;;;;15.70;10.53;;;;;;;19.62;88.54;97765.17;1736382;81;20835;-78
2021/07/29 02:50:26;;;;;;;12.55;10.30;;;;;;;19.58;88.85;97763.48;1736471;81;20898;-74
2021/07/29 02:52:52;;;;;;;14.50;10.60;;;;;;;19.54;89.00;97757.83;1736256;82;21017;-73
2021/07/29 02:55:20;;;;;;;16.40;11.40;;;;;;;19.57;89.32;97762.68;1728010;81;21307;-78
2021/07/29 02:57:45;;;;;;;16.70;10.98;;;;;;;19.57;89.52;97765.97;1721712;82;21027;-79
2021/07/29 03:00:12;;;;;;;13.40;10.78;;;;;;;19.57;89.10;97768.17;1729744;82;21000;-75
2021/07/29 03:02:38;;;;;;;12.03;9.98;;;;;;;19.55;89.00;97766.87;1736347;82;20962;-74
2021/07/29 03:05:05;;;;;;;13.22;9.93;;;;;;;19.59;88.49;97774.70;1741610;81;20811;-77
2021/07/29 03:07:31;;;;;;;15.88;10.63;;;;;;;19.63;88.42;97774.22;1745249;82;21151;-79
2021/07/29 03:09:57;;;;;;;14.10;10.63;;;;;;;19.70;87.38;97776.63;1735751;81;20974;-79
2021/07/29 03:12:23;;;;;;;13.78;10.70;;;;;;;19.79;87.25;97775.13;1721915;82;20934;-74
2021/07/29 03:14:49;;;;;;;14.20;10.90;;;;;;;19.84;86.98;97776.85;1727682;82;20866;-75
2021/07/29 03:17:15;;;;;;;13.15;9.75;;;;;;;19.90;86.65;97775.45;1736356;82;20997;-74
2021/07/29 03:19:41;;;;;;;11.63;10.10;;;;;;;19.95;86.48;97771.09;1731667;82;22034;-74
2021/07/29 03:22:07;;;;;;;13.18;10.53;;;;;;;19.98;86.10;97777.27;1724178;82;20866;-77
2021/07/29 03:24:33;;;;;;;11.80;9.65;;;;;;;20.04;85.91;97787.46;1736533;82;20874;-74
2021/07/29 03:26:59;;;;;;;13.18;9.98;;;;;;;20.08;85.57;97787.81;1715340;82;21116;-74
2021/07/29 03:29:29;;;;;;;14.10;10.00;;;;;;;20.12;85.22;97787.91;1736198;81;20859;-79
2021/07/29 03:31:54;;;;;;;12.70;8.93;;;;;;;20.11;84.79;97790.43;1735344;82;21100;-79
2021/07/29 03:34:20;;;;;;;11.48;8.23;;;;;;;20.09;84.59;97794.11;1736120;82;20938;-73
2021/07/29 03:36:47;;;;;;;11.55;8.80;;;;;;;20.08;84.29;97800.19;1736367;82;21776;-74
2021/07/29 03:39:13;;;;;;;11.25;9.00;;;;;;;20.08;84.05;97794.69;1736073;82;20915;-73
2021/07/29 03:41:39;;;;;;;12.95;9.10;;;;;;;20.09;83.81;97795.48;1736795;82;20823;-73
2021/07/29 03:44:05;;;;;;;15.20;9.75;;;;;;;20.10;83.59;97791.00;1736255;82;21326;-73
2021/07/29 03:46:31;;;;;;;10.58;8.20;;;;;;;20.09;83.22;97794.91;1736522;82;20984;-79
2021/07/29 03:48:58;;;;;;;8.23;6.50;;;;;;;20.05;82.91;97798.11;1736056;82;20878;-73
2021/07/29 03:51:27;;;;;;;8.13;7.15;;;;;;;20.05;82.72;97800.86;1736373;82;21414;-73
2021/07/29 03:53:52;;;;;;;;;;;;;;;19.92;82.73;97805.59;1738780;82;20966;-78
2021/07/29 03:56:18;;;;;;;7.85;5.70;;;;;;;19.88;82.77;97805.23;1736582;82;21736;-78
2021/07/29 03:58:44;;;;;;;11.05;6.83;;;;;;;19.85;82.76;97805.37;1736075;82;20968;-77
2021/07/29 04:01:11;;;;;;;8.78;7.87;;;;;;;19.69;82.83;97804.46;1736403;82;20843;-74
2021/07/29 04:03:37;;;;;;;12.03;9.93;;;;;;;19.66;83.03;97807.91;1736069;82;21442;-73
2021/07/29 04:06:03;;;;;;;9.73;8.00;;;;;;;19.72;83.16;97809.26;1728930;82;20923;-73
2021/07/29 04:08:29;;;;;;;8.60;7.35;;;;;;;19.73;82.95;97813.03;1728245;83;21188;-77
2021/07/29 04:10:58;;;;;;;8.60;6.65;;;;;;;19.77;82.98;97811.78;1728289;82;20942;-73
2021/07/29 04:13:23;;;;;;;9.00;6.17;;;;;;;19.84;82.90;97814.77;1728283;82;20919;-74
2021/07/29 04:15:59;;;;;;;9.90;6.60;;;;;;;19.91;82.69;97811.41;1728326;83;21010;-79
2021/07/29 04:18:25;;;;;;;9.68;7.65;;;;;;;19.94;82.43;97814.29;1728117;82;21380;-73
2021/07/29 04:20:51;;;;;;;15.65;11.20;;;;;;;19.94;82.22;97819.79;1728161;83;21045;-73
2021/07/29 04:23:17;;;;;;;33.38;26.70;;;;;;;19.96;82.39;97818.86;1718614;82;20978;-73
2021/07/29 04:25:42;;;;;;;16.37;12.88;;;;;;;20.04;82.32;97819.89;1724705;83;20891;-73
2021/07/29 04:28:08;;;;;;;7.85;5.30;;;;;;;20.07;82.19;97820.56;1728177;83;20824;-73
2021/07/29 04:30:34;;;;;;;7.40;5.30;;;;;;;19.98;81.89;97813.81;1728313;83;20942;-78
2021/07/29 04:33:00;;;;;;;6.50;5.28;;;;;;;19.88;81.86;97823.91;1720387;82;21286;-73
2021/07/29 04:35:26;;;;;;;7.92;5.92;;;;;;;19.80;81.67;97816.58;1722866;82;21123;-77
2021/07/29 04:37:52;;;;;;;11.50;6.70;;;;;;;19.63;81.79;97817.62;1721148;83;20851;-77
2021/07/29 04:40:19;;;;;;;7.87;5.15;;;;;;;19.60;84.00;97824.39;1722223;83;21437;-73
2021/07/29 04:42:45;;;;;;;6.87;5.25;;;;;;;19.62;82.94;97828.96;1728084;83;20947;-73
2021/07/29 04:45:12;;;;;;;6.50;5.62;;;;;;;19.62;82.62;97836.63;1718683;83;20980;-77
2021/07/29 04:47:37;;;;;;;6.28;5.65;;;;;;;19.72;82.55;97831.25;1708685;82;21482;-77
2021/07/29 04:50:04;;;;;;;8.68;6.90;;;;;;;19.81;82.21;97834.68;1708818;84;20852;-73
2021/07/29 04:52:30;;;;;;;11.10;8.98;;;;;;;19.97;82.04;97841.66;1708608;84;20976;-77
2021/07/29 04:54:56;;;;;;;15.03;10.45;;;;;;;20.27;81.72;97838.88;1708854;84;20979;-76
2021/07/29 04:57:22;;;;;;;14.38;9.38;;;;;;;20.52;81.07;97827.25;1708638;84;21299;-77
2021/07/29 04:59:48;;;;;;;8.90;6.00;;;;;;;20.73;80.92;97829.00;1708478;84;21589;-76
2021/07/29 05:02:17;;;;;;;11.45;6.55;;;;;;;20.86;79.82;97831.14;1708680;84;20883;-77
2021/07/29 05:04:44;;;;;;;9.78;6.33;;;;;;;20.69;79.88;97834.42;1708450;83;21354;-78
2021/07/29 05:07:12;;;;;;;7.92;5.83;;;;;;;20.76;79.75;97840.10;1708776;84;20921;-78
2021/07/29 05:09:39;;;;;;;15.50;6.30;;;;;;;20.62;80.00;97835.59;1704299;84;21158;-77
2021/07/29 05:12:06;;;;;;;15.55;6.58;;;;;;;20.58;81.06;97827.79;1700609;83;21403;-77
2021/07/29 05:14:32;;;;;;;10.45;6.30;;;;;;;20.55;81.36;97828.50;1724637;82;20968;-78
2021/07/29 05:17:02;;;;;;;6.92;5.12;;;;;;;20.58;80.80;97839.38;1716196;83;20875;-75
2021/07/29 05:19:28;;;;;;;9.03;5.65;;;;;;;20.65;80.44;97832.12;1703492;83;20967;-78
2021/07/29 05:21:54;;;;;;;5.92;5.08;;;;;;;20.65;80.23;97832.12;1698220;83;21319;-78
2021/07/29 05:24:19;;;;;;;9.75;6.75;;;;;;;20.74;79.90;97838.28;1719086;82;20892;-78
2021/07/29 05:26:45;;;;;;;7.50;6.05;;;;;;;20.94;79.55;97839.25;1719449;82;21558;-78
2021/07/29 05:29:11;;;;;;;8.05;6.17;;;;;;;21.11;78.93;97837.55;1714671;83;20886;-78
2021/07/29 05:31:41;;;;;;;7.53;5.45;;;;;;;21.23;78.15;97835.86;1718067;83;21005;-75
2021/07/29 05:34:05;;;;;;;7.05;5.70;;;;;;;21.26;76.80;97835.14;1698297;82;21086;-78
2021/07/29 05:36:31;;;;;;;8.80;6.05;;;;;;;21.12;76.41;97834.22;1727201;82;20918;-79
2021/07/29 05:38:57;;;;;;;11.12;5.80;;;;;;;20.98;77.07;97837.37;1727693;83;20875;-75
2021/07/29 05:41:23;;;;;;;9.70;5.53;;;;;;;21.06;77.35;97841.12;1707417;83;22265;-78
2021/07/29 05:43:49;;;;;;;8.50;6.22;;;;;;;21.16;77.33;97838.42;1727772;82;21030;-75
2021/07/29 05:46:15;;;;;;;12.65;6.15;;;;;;;21.25;77.30;97843.19;1719062;82;21125;-78
2021/07/29 05:48:41;;;;;;;8.38;5.92;;;;;;;21.35;77.12;97842.69;1731085;82;20894;-75
2021/07/29 05:51:07;;;;;;;15.58;11.00;;;;;;;21.36;76.92;97845.67;1733334;82;20851;-78
2021/07/29 05:53:33;;;;;;;10.65;9.65;;;;;;;21.40;76.40;97843.82;1728091;82;20851;-75
2021/07/29 05:55:59;;;;;;;8.03;6.30;;;;;;;21.30;76.79;97849.28;1728297;83;20883;-78
2021/07/29 05:58:25;;;;;;;7.00;5.40;;;;;;;21.31;76.82;97851.46;1714908;82;21106;-78
2021/07/29 06:00:51;;;;;;;7.03;5.50;;;;;;;21.32;76.36;97848.92;1708954;84;20946;-75
2021/07/29 06:03:17;;;;;;;6.65;5.60;;;;;;;21.34;76.15;97851.54;1708771;83;20920;-75
2021/07/29 06:05:43;;;;;;;7.47;5.25;;;;;;;21.45;75.95;97852.38;1708749;83;21352;-75
2021/07/29 06:08:09;;;;;;;9.10;5.05;;;;;;;21.50;75.46;97849.38;1708913;84;20900;-78
2021/07/29 06:10:35;;;;;;;8.05;5.75;;;;;;;21.58;74.70;97859.43;1709074;83;21372;-75
2021/07/29 06:13:01;;;;;;;10.25;6.40;;;;;;;21.51;74.05;97855.91;1708497;83;21368;-78
2021/07/29 06:15:27;;;;;;;9.83;6.15;;;;;;;21.53;73.86;97859.10;1709017;84;20939;-76
2021/07/29 06:17:58;;;;;;;7.75;5.65;;;;;;;21.50;73.80;97859.83;1689885;84;20891;-75
2021/07/29 06:20:23;;;;;;;13.65;6.35;;;;;;;21.60;73.89;97859.87;1721645;82;20995;-78
2021/07/29 06:22:49;;;;;;;7.55;4.83;;;;;;;21.84;73.61;97861.64;1715095;83;22005;-78
2021/07/29 06:25:18;;;;;;;6.47;4.50;;;;;;;22.10;72.88;97858.34;1709670;83;20820;-78
2021/07/29 06:27:46;;;;;;;7.67;5.42;;;;;;;22.32;69.62;97863.78;1721353;82;20963;-75
2021/07/29 06:30:13;;;;;;;8.15;5.53;;;;;;;22.35;70.91;97860.28;1727142;82;20915;-75
2021/07/29 06:32:39;;;;;;;7.67;5.37;;;;;;;22.64;69.85;97862.48;1728301;82;21026;-75
2021/07/29 06:35:07;;;;;;;8.18;4.70;;;;;;;23.02;69.35;97854.02;1728382;82;20963;-75
2021/07/29 06:37:33;;;;;;;;;;;;;;;23.24;65.90;97856.58;1730660;82;20893;-78
2021/07/29 06:39:59;;;;;;;9.08;5.53;;;;;;;23.17;66.82;97861.41;1728972;82;20265;-77
2021/07/29 06:42:25;;;;;;;7.22;4.60;;;;;;;22.97;64.46;97860.63;1728142;83;21019;-78
2021/07/29 06:44:51;;;;;;;6.92;4.97;;;;;;;22.97;66.19;97863.97;1728183;83;21532;-75
2021/07/29 06:47:21;;;;;;;8.33;5.03;;;;;;;22.66;65.22;97863.52;1728271;83;21702;-75
2021/07/29 06:49:48;;;;;;;14.30;6.78;;;;;;;22.59;64.68;97855.88;1728042;83;21017;-74
2021/07/29 06:52:14;;;;;;;11.35;6.22;;;;;;;22.51;65.34;97852.75;1726205;83;20964;-77
2021/07/29 06:54:40;;;;;;;10.43;6.15;;;;;;;22.67;63.65;97859.02;1716685;82;20967;-74
2021/07/29 06:57:08;;;;;;;7.40;4.70;;;;;;;22.69;61.14;97860.02;1719169;82;21011;-74
2021/07/29 06:59:34;;;;;;;6.85;4.45;;;;;;;22.71;60.88;97857.70;1725316;83;21016;-74
2021/07/29 07:02:00;;;;;;;4.78;3.77;;;;;;;23.03;62.75;97858.38;1718458;82;21058;-77
2021/07/29 07:04:27;;;;;;;5.50;4.22;;;;;;;23.20;61.50;97861.26;1725687;83;20964;-76
2021/07/29 07:06:53;;;;;;;6.92;4.45;;;;;;;23.25;59.47;97863.15;1718006;82;20979;-77
2021/07/29 07:09:19;;;;;;;4.85;4.10;;;;;;;23.58;58.92;97870.82;1728258;83;20876;-75
2021/07/29 07:11:45;;;;;;;8.85;5.35;;;;;;;24.06;59.56;97869.06;1732086;82;21007;-76
2021/07/29 07:14:11;;;;;;;6.25;4.62;;;;;;;24.40;60.18;97865.25;1716891;83;20935;-74
2021/07/29 07:16:37;;;;;;;6.72;5.00;;;;;;;24.63;58.58;97867.15;1716631;83;21070;-77
2021/07/29 07:19:05;;;;;;;6.95;4.20;;;;;;;24.64;58.88;97861.81;1709099;84;20896;-77
2021/07/29 07:21:32;;;;;;;7.33;4.12;;;;;;;24.45;57.99;97870.48;1709386;84;21031;-75
2021/07/29 07:23:57;;;;;;;4.62;3.80;;;;;;;24.29;58.29;97873.97;1708747;84;21125;-77
2021/07/29 07:26:24;;;;;;;6.90;4.17;;;;;;;24.39;58.34;97866.43;1709207;83;21568;-76
2021/07/29 07:28:51;;;;;;;5.37;3.90;;;;;;;24.52;56.32;97867.57;1708782;83;20963;-75
2021/07/29 07:31:17;;;;;;;6.65;3.45;;;;;;;25.10;56.26;97863.77;1709092;83;21100;-77
2021/07/29 07:33:45;;;;;;;8.03;3.60;;;;;;;25.47;54.26;97865.76;1708715;84;20924;-75
2021/07/29 07:36:10;;;;;;;5.17;3.85;;;;;;;25.45;53.04;97860.57;1706395;82;21301;-75
2021/07/29 07:38:36;;;;;;;4.72;3.80;;;;;;;25.40;53.73;97869.25;1701757;82;20865;-77
2021/07/29 07:41:09;;;;;;;4.70;3.58;;;;;;;25.59;52.35;97871.81;1724829;82;20970;-75
2021/07/29 07:43:35;;;;;;;6.33;4.22;;;;;;;25.81;51.22;97866.49;1727897;82;21320;-79
2021/07/29 07:46:02;;;;;;;5.72;4.05;;;;;;;25.72;50.56;97860.44;1728599;82;20997;-76
2021/07/29 07:48:28;;;;;;;6.47;3.25;;;;;;;26.31;49.93;97859.29;1690968;83;22789;-76
2021/07/29 07:50:54;;;;;;;6.40;4.42;;;;;;;26.48;49.89;97860.61;1724453;83;20933;-78
2021/07/29 07:53:28;;;;;;;9.05;3.50;;;;;;;27.04;50.12;97855.14;1728019;83;20975;-79
2021/07/29 07:55:55;;;;;;;7.25;3.90;;;;;;;27.59;48.77;97856.23;1728274;83;20939;-76
2021/07/29 07:58:21;;;;;;;5.70;3.62;;;;;;;27.70;46.72;97857.08;1720970;82;20983;-79
2021/07/29 08:00:47;;;;;;;9.15;3.70;;;;;;;28.28;47.58;97850.25;1725527;83;21327;-79
2021/07/29 08:03:13;;;;;;;5.28;3.45;;;;;;;28.61;46.81;97849.60;1728130;83;21489;-76
2021/07/29 08:05:39;;;;;;;6.25;3.90;;;;;;;28.57;44.15;97849.63;1717876;83;20836;-76
2021/07/29 08:08:09;;;;;;;6.83;3.62;;;;;;;29.26;45.64;97849.54;1708831;82;20936;-79
2021/07/29 08:10:36;;;;;;;7.62;3.70;;;;;;;29.23;44.16;97848.97;1708743;84;21368;-77
2021/07/29 08:13:05;;;;;;;6.47;3.70;;;;;;;29.57;44.86;97841.38;1709070;84;21345;-77
2021/07/29 08:15:32;;;;;;;4.78;3.50;;;;;;;29.88;43.06;97838.94;1708307;83;21027;-78
2021/07/29 08:17:58;;;;;;;4.95;3.95;;;;;;;30.30;41.53;97839.77;1696622;84;21003;-78
2021/07/29 08:20:29;;;;;;;3.80;3.40;;;;;;;29.84;41.75;97844.38;1717534;83;20878;-78
2021/07/29 08:22:53;;;;;;;5.17;3.90;;;;;;;29.89;41.32;97842.52;1715122;83;20976;-79
2021/07/29 08:25:21;;;;;;;3.83;3.30;;;;;;;29.22;42.73;97845.96;1708304;84;21131;-79
2021/07/29 08:27:48;;;;;;;5.60;3.60;;;;;;;28.62;42.77;97838.64;1708717;83;21003;-77
2021/07/29 08:30:15;;;;;;;6.57;3.60;;;;;;;28.08;43.65;97842.93;1708823;84;21019;-80
2021/07/29 08:32:43;;;;;;;4.12;3.42;;;;;;;28.65;42.52;97842.83;1708755;83;20968;-79
2021/07/29 08:35:12;;;;;;;6.03;3.50;;;;;;;29.37;42.57;97848.86;1708652;83;20964;-77
2021/07/29 08:37:40;;;;;;;7.90;3.60;;;;;;;29.75;41.06;97838.66;1708879;83;21478;-80
2021/07/29 08:40:08;;;;;;;4.00;3.08;;;;;;;29.75;41.06;97838.66;1708726;84;21279;-77
2021/07/29 08:42:34;;;;;;;3.80;2.70;;;;;;;29.90;39.25;97832.94;1709211;83;20960;-80
2021/07/29 08:45:00;;;;;;;5.35;3.72;;;;;;;30.23;39.57;97835.65;1696401;84;20884;-77
2021/07/29 08:47:29;;;;;;;5.22;3.40;;;;;;;30.48;39.13;97833.38;1712985;83;21453;-79
2021/07/29 08:49:55;;;;;;;4.75;3.55;;;;;;;31.21;38.70;97833.53;1717764;83;21146;-76
2021/07/29 08:52:23;;;;;;;4.17;3.20;;;;;;;31.18;37.35;97828.73;1708663;84;20930;-79
2021/07/29 08:54:50;;;;;;;6.10;3.83;;;;;;;31.71;36.09;97825.17;1708871;83;20951;-76
2021/07/29 08:57:28;;;;;;;5.47;3.45;;;;;;;32.33;35.62;97834.75;1709133;84;20995;-77
2021/07/29 09:00:00;;;;;;;4.90;3.37;;;;;;;31.93;36.16;97837.42;1708689;84;20908;-80
2021/07/29 09:02:27;;;;;;;3.42;3.00;;;;;;;31.49;37.29;97837.12;1708840;84;22050;-77
2021/07/29 09:05:12;;;;;;;9.60;3.42;;;;;;;32.32;36.26;97843.78;1708840;84;21011;-79
2021/07/29 09:07:38;;;;;;;3.95;3.10;;;;;;;32.89;33.45;97840.47;1708621;82;20983;-80
2021/07/29 09:10:22;;;;;;;3.77;3.00;;;;;;;33.86;34.24;97841.30;1709038;83;20920;-80
2021/07/29 09:13:12;;;;;;;3.75;2.95;;;;;;;34.45;32.66;97832.56;1708878;84;20979;-80
2021/07/29 09:15:39;;;;;;;3.12;2.60;;;;;;;35.50;32.40;97835.34;1708559;82;21361;-79
2021/07/29 09:18:05;;;;;;;3.70;2.87;;;;;;;36.03;28.69;97835.64;1708654;84;20956;-79
2021/07/29 09:20:31;;;;;;;5.37;3.12;;;;;;;34.96;29.99;97831.34;1674367;84;20954;-77
2021/07/29 09:23:20;;;;;;;4.17;2.62;;;;;;;34.41;31.40;97825.44;1696216;83;21007;-80
2021/07/29 09:25:58;;;;;;;6.47;3.22;;;;;;;34.11;29.64;97829.45;1708724;83;20908;-79
2021/07/29 09:28:35;;;;;;;3.62;2.98;;;;;;;35.20;30.17;97827.58;1708932;83;21143;-81
2021/07/29 09:31:19;;;;;;;4.00;2.90;;;;;;;34.96;29.44;97826.33;1708963;83;21011;-80
2021/07/29 09:34:02;;;;;;;2.92;2.62;;;;;;;34.97;29.96;97819.45;1708827;84;22018;-80
2021/07/29 09:36:32;;;;;;;5.90;3.05;;;;;;;35.70;29.88;97820.39;1708923;83;21416;-79
2021/07/29 09:39:18;;;;;;;4.50;3.20;;;;;;;33.53;32.51;97824.42;1708735;83;21006;-79
2021/07/29 09:41:44;;;;;;;3.57;3.10;;;;;;;33.05;32.94;97814.66;1709040;84;21159;-75
2021/07/29 09:44:12;;;;;;;4.28;3.25;;;;;;;32.38;33.75;97807.61;1709080;82;20976;-78
2021/07/29 09:46:38;;;;;;;5.60;3.15;;;;;;;33.36;32.87;97814.37;1708800;83;21035;-77
2021/07/29 09:49:04;;;;;;;6.75;3.95;;;;;;;34.85;30.30;97811.11;1695552;83;20893;-77
2021/07/29 09:51:30;;;;;;;6.55;5.28;;;;;;;35.52;30.19;97806.10;1708900;83;20935;-77
2021/07/29 09:53:57;;;;;;;4.65;3.10;;;;;;;36.58;28.27;97803.10;1708551;84;21922;-77
2021/07/29 09:56:23;;;;;;;4.03;2.95;;;;;;;36.40;28.30;97807.95;1717316;83;21019;-80
2021/07/29 09:58:49;;;;;;;4.33;2.90;;;;;;;35.54;29.37;97807.22;1708514;82;21561;-77
2021/07/29 10:01:15;;;;;;;3.72;3.10;;;;;;;35.71;28.54;97800.83;1708621;84;20872;-80
2021/07/29 10:03:44;;;;;;;5.40;3.00;;;;;;;36.82;27.42;97801.20;1708730;83;21046;-79
2021/07/29 10:06:18;;;;;;;6.60;3.52;;;;;;;37.94;26.77;97798.58;1711741;82;20915;-80
2021/07/29 10:08:58;;;;;;;3.92;3.12;;;;;;;37.78;26.91;97788.36;1718179;82;21553;-80
2021/07/29 10:11:27;;;;;;;5.60;2.77;;;;;;;38.62;25.56;97788.55;1719536;82;21046;-77
2021/07/29 10:13:53;;;;;;;2.87;2.37;;;;;;;39.13;24.03;97783.61;1719170;82;21045;-80
2021/07/29 10:16:45;;;;;;;3.90;2.90;;;;;;;38.66;23.91;97784.95;1718658;82;20975;-80
2021/07/29 10:19:12;;;;;;;5.05;3.02;;;;;;;38.94;23.29;97785.69;1719109;82;20999;-77
2021/07/29 10:21:38;;;;;;;4.78;2.98;;;;;;;38.95;24.20;97785.84;1718280;83;20939;-78
2021/07/29 10:24:06;;;;;;;6.65;3.17;;;;;;;39.34;23.53;97771.89;1727883;82;20891;-80
2021/07/29 10:26:51;;;;;;;3.52;2.60;;;;;;;39.76;22.97;97776.09;1727766;83;20959;-78
2021/07/29 10:29:25;;;;;;;3.60;2.87;;;;;;;38.88;23.66;97769.18;1727539;83;21033;-77
2021/07/29 10:32:02;;;;;;;3.17;2.85;;;;;;;40.30;21.30;97767.83;1728296;82;20959;-80
2021/07/29 10:34:32;;;;;;;3.70;2.73;;;;;;;40.07;21.93;97768.64;1726049;82;20995;-77
2021/07/29 10:37:02;;;;;;;3.22;2.62;;;;;;;39.35;22.93;97761.48;1714799;83;21201;-80
2021/07/29 10:39:29;;;;;;;3.45;2.77;;;;;;;39.87;22.71;97766.41;1704969;83;20971;-80
2021/07/29 10:41:59;;;;;;;3.65;2.90;;;;;;;37.01;25.10;97775.32;1728295;82;21450;-80
2021/07/29 10:44:39;;;;;;;4.75;3.22;;;;;;;35.86;26.55;97777.19;1725340;83;21157;-80
2021/07/29 10:47:10;;;;;;;3.10;2.42;;;;;;;34.72;28.27;97773.73;1719048;82;20959;-80
2021/07/29 10:49:52;;;;;;;3.72;3.08;;;;;;;33.49;29.98;97780.80;1727326;82;21120;-76
2021/07/29 10:52:18;;;;;;;3.40;2.67;;;;;;;33.02;30.79;97777.66;1728063;82;21053;-75
2021/07/29 10:54:45;;;;;;;5.45;3.40;;;;;;;31.72;32.89;97772.14;1728140;82;20907;-78
2021/07/29 10:57:12;;;;;;;4.40;2.90;;;;;;;32.97;31.51;97766.93;1728001;83;21769;-77
2021/07/29 10:59:38;;;;;;;5.17;3.30;;;;;;;31.47;34.07;97779.37;1728209;83;21661;-78
2021/07/29 11:02:08;;;;;;;5.08;3.10;;;;;;;30.25;36.61;97775.37;1728753;82;21513;-75
2021/07/29 11:04:56;;;;;;;5.28;3.52;;;;;;;29.92;37.13;97768.50;1728101;82;20974;-76
2021/07/29 11:07:22;;;;;;;3.42;2.87;;;;;;;30.37;36.73;97771.84;1736257;82;20967;-79
2021/07/29 11:09:48;;;;;;;4.12;3.72;;;;;;;29.55;37.79;97774.02;1741124;82;21288;-79
2021/07/29 11:12:15;;;;;;;5.47;3.65;;;;;;;28.46;39.81;97772.25;1741084;82;20887;-78
2021/07/29 11:14:42;;;;;;;5.12;3.90;;;;;;;28.09;41.28;97770.72;1736461;82;27625;-76
2021/07/29 11:17:08;;;;;;;5.10;4.03;;;;;;;30.80;35.88;97762.34;1708077;83;20877;-76
2021/07/29 11:19:46;;;;;;;7.40;4.10;;;;;;;32.55;33.30;97761.60;1699299;82;20868;-79
2021/07/29 11:22:12;;;;;;;8.30;4.50;;;;;;;33.39;30.93;97760.97;1721596;82;21184;-79
2021/07/29 11:24:38;;;;;;;4.47;3.90;;;;;;;35.12;29.87;97759.27;1721799;82;21557;-77
2021/07/29 11:27:10;;;;;;;7.10;4.33;;;;;;;36.04;28.40;97763.30;1723923;82;20982;-79
2021/07/29 11:29:35;;;;;;;3.75;3.45;;;;;;;35.90;26.69;97760.99;1736184;81;20887;-80
2021/07/29 11:32:01;;;;;;;5.45;3.87;;;;;;;35.85;26.82;97762.31;1732967;82;20930;-77